Archival Weather

Chicago O'Hare International

Chicago, Illinois (KORD)

Report from: Monday, January 23, 2023 5:51 PM CST
Current time: Thursday, July 18, 2024 9:41 PM CDT

Current weather – Weather history – Daily summaries
Weather forecast

Temperature-2.8°C (27.0°F)
Wind chill-8.8°C (16.1°F)
Dew point-6.1°C (21.0°F)
Winds 11 kts (5.7 m/s, 12.7 mph) Southwest (230°)
Wind gusts 20 kts (10.3 m/s, 23 mph)
Visibility10 mi. (16.1 km)
Clouds Few clouds 1,000 ft. (305 m)
Ceiling: Broken clouds 25,000 ft. (7,620 m)
Altimeter30.06 in.Hg (1018 mB)
Relative humidity78 %
Density altitude-2,320 ft. (-707 m)
Sea-level pressure101.9 kPa (1019 mB, 30.09 in.Hg)
Max temp last 6 hours-1.1°C (30.0°F)
Min temp last 6 hours-3.3°C (26.1°F)
Remarks Automated weather observing station with precipitation discriminator
Pressure rising more slowly
Flight conditions Visual Meteorological Conditions
Raw dataKORD 232351Z 23011G20KT 10SM FEW010 BKN250 M03/M06 A3006 RMK AO2 SLP189 T10281061 11011 21033 51001
An error has occurred. This application may no longer respond until reloaded. Reload 🗙